METAR Data
IDs: Format: Raw Decoded Include TAF

Data at: 2046 UTC 14 Dec 2018

KGYI 141848Z COR 32015G24KT 7SM OVC009 07/06 A2998 RA
KGYI 141745Z 33016G19KT 3SM BKN010 OVC014 06/05 A3001 RA
KGYI 141655Z 34013G17KT 2SM OVC010 06/04 A3002 RA
KGYI 141552Z 33015G22KT 2SM BKN010 05/04 A3000 RA
KGYI 141448Z 34016G23KT 4SM OVC013 05/04 A2998 -RA
KGYI 141359Z 35016G23KT 5SM OVC013 05/04 A2995 -RA
KGYI 141255Z AUTO 34017G26KT 2 1/2SM -RA OVC013 05/04 A2993 RMK AO2 P0001 T00500040 TSNO
KGYI 141252Z 3401726KT 2 1/2SM OVC004 05/04 A2993 -RA
KGYI 141235Z AUTO 36018G21KT 7SM OVC011 05/04 A2993 RMK AO2 T00520039 TSNO
KGYI 141215Z AUTO 35015G23KT 10SM OVC011 05/04 A2992 RMK AO2 T00530040 TSNO
KGYI 141155Z AUTO 35013G24KT 10SM OVC011 05/04 A2991 RMK AO2 P0001 60028 70124 T00530040 10065 20053 TSNO
KGYI 141135Z AUTO 34019G26KT 10SM OVC011 05/04 A2989 RMK AO2 P0001 T00530042 TSNO
KGYI 141115Z AUTO 34013G22KT 10SM OVC011 06/05 A2988 RMK AO2 T00550045 TSNO
KGYI 141055Z AUTO 35016G21KT 7SM BKN009 OVC013 06/05 A2989 RMK AO2 P0002 T00560046 TSNO
KGYI 141035Z AUTO 35012G20KT 4SM -RA OVC009 06/05 A2989 RMK AO2 P0002 T00570048 TSNO
KGYI 141015Z AUTO 35011G20KT 3SM -RA OVC011 06/05 A2988 RMK AO2 P0002 T00570047 TSNO
KGYI 140955Z AUTO 34014G23KT 5SM RA OVC011 06/05 A2988 RMK AO2 P0002 T00600048 TSNO
KGYI 140935Z AUTO 36013G20KT 7SM -RA OVC011 06/05 A2988 RMK AO2 P0001 T00610050 TSNO
KGYI 140915Z AUTO 36013G27KT 7SM -RA OVC011 06/05 A2986 RMK AO2 P0001 T00620050 TSNO
KGYI 140855Z AUTO 36014G24KT 10SM -RA OVC011 06/05 A2985 RMK AO2 P0002 60022 T00620050 TSNO
KGYI 140835Z AUTO 36019G24KT 10SM OVC011 06/05 A2985 RMK AO2 T00630051 TSNO
KGYI 140815Z AUTO 36013G22KT 10SM OVC009 06/05 A2985 RMK AO2 T00630053 TSNO
KGYI 140755Z AUTO 36015G25KT 10SM -RA OVC009 06/05 A2984 RMK AO2 P0013 T00620052 TSNO
KGYI 140735Z AUTO 36017G26KT 7SM -RA OVC011 06/05 A2983 RMK AO2 P0013 T00620052 TSNO
KGYI 140715Z AUTO 01022G32KT 4SM -RA OVC011 06/05 A2983 RMK AO2 P0007 T00620052 TSNO
KGYI 140655Z AUTO 36012G19KT 5SM -RA OVC011 06/06 A2983 RMK AO2 P0007 T00620055 TSNO
KGYI 140635Z AUTO 36012G20KT 3SM -RA OVC011 06/05 A2984 RMK AO2 P0003 T00620053 TSNO
KGYI 140615Z AUTO 36014G21KT 10SM -DZ OVC011 07/05 A2984 RMK AO2 T00650050 TSNO
KGYI 140555Z AUTO 36014G26KT 10SM OVC011 07/05 A2983 RMK AO2 60001 T00650048 10067 20065 401670065 TSNO
KGYI 140535Z AUTO 36016G25KT 10SM OVC011 07/05 A2983 RMK AO2 T00650047 TSNO
KGYI 140515Z AUTO 01019G26KT 10SM OVC011 07/05 A2983 RMK AO2 T00650047 TSNO
KGYI 140455Z AUTO 01016G29KT 10SM OVC011 07/05 A2982 RMK AO2 T00660047 TSNO
KGYI 140435Z AUTO 01019G26KT 10SM OVC011 07/05 A2981 RMK AO2 T00660048 TSNO
KGYI 140415Z AUTO 36017G29KT 10SM OVC011 07/05 A2980 RMK AO2 T00670050 TSNO
KGYI 140355Z AUTO 36020G29KT 10SM OVC011 07/05 A2980 RMK AO2 T00670051 TSNO
KGYI 140335Z AUTO 01015G24KT 10SM OVC011 07/05 A2981 RMK AO2 T00670052 TSNO
KGYI 140315Z AUTO 36017G25KT 10SM OVC011 07/05 A2980 RMK AO2 T00660053 TSNO
KGYI 140255Z AUTO 36014G26KT 10SM OVC011 07/06 A2979 RMK AO2 60001 T00660055 TSNO
KGYI 140235Z AUTO 01021G28KT 10SM OVC011 07/06 A2978 RMK AO2 T00660055 TSNO
KGYI 140215Z AUTO 36018G24KT 10SM OVC009 07/06 A2978 RMK AO2 T00650056 TSNO
KGYI 140155Z AUTO 36017G26KT 10SM OVC009 07/06 A2977 RMK AO2 T00660057 TSNO
KGYI 140135Z AUTO 36019G24KT 10SM -DZ OVC009 07/06 A2977 RMK AO2 T00660058 TSNO
KGYI 140115Z AUTO 36019G32KT 10SM OVC009 07/06 A2976 RMK AO2 T00660058 TSNO
KGYI 132353Z 36016G26KT 7SM OVC007 07/06 A2974 RA
KGYI 132255Z 35017G23KT 7SM OVC009 07/06 A2971 RA
KGYI 132157Z 22010G18KT 2 1/2SM OVC007 08/07 A2972 RMK TS VCNTY
KGYI 132050Z 310/10G22KT 07SM OVC050 09/09 A2927
KGYI 131756Z 14006KT 07SM BKN009 OVC032 17/15 A2972
KGYI 131655Z 13005KT 07SM OVC009 16/15 A2972
KGYI 131551Z 13008KT 10SM OVC009 16/15 A2972
KGYI 131445Z 14009KT 03SM SCT012 BRK028 15/14 A2973
KGYI 131346Z 13008KT 07SM BKN010 OVC019 16/14 A2971
KGYI 131317Z 12008KT 07SM BKN006 BKN011 OVC027 16/14 A2970
KGYI 131255Z AUTO 13007KT 7SM SCT006 BKN014 OVC090 15/15 A2970 RMK AO2 P0003 T01520146 TSNO
KGYI 131245Z COR 11007KT 07SM SCT019 BRK085 OVC120 15/14 A2970
KGYI 131235Z AUTO 12007KT 5SM RA SCT020 BKN085 OVC110 15/15 A2970 RMK AO2 P0003 T01500145 TSNO
KGYI 131215Z AUTO 11006KT 7SM SCT014 SCT023 OVC085 15/15 A2968 RMK AO2 T01500145 TSNO
KGYI 131155Z AUTO 11003KT 7SM RA SCT015 BKN026 OVC085 15/14 A2970 RMK AO2 P0002 60002 70002 T01500144 10155 20140 TSNO
KGYI 131135Z AUTO 13004KT 7SM SCT020 BKN090 OVC120 15/14 A2969 RMK AO2 T01500144 TSNO
KGYI 131115Z AUTO 13006KT 7SM SCT017 SCT026 BKN031 15/14 A2968 RMK AO2 T01460141 TSNO
KGYI 131055Z AUTO 15005KT 7SM SCT017 SCT022 SCT028 14/14 A2968 RMK AO2 T01400135 TSNO
KGYI 131035Z AUTO 16007KT 10SM SCT010 SCT018 14/14 A2968 RMK AO2 T01410135 TSNO
KGYI 131015Z AUTO 17008KT 10SM CLR 15/14 A2969 RMK AO2 T01450136 TSNO
KGYI 130955Z AUTO 17009KT 10SM SCT120 15/14 A2970 RMK AO2 T01450136 TSNO
KGYI 130935Z AUTO 17012KT 10SM BKN120 15/14 A2971 RMK AO2 T01460138 TSNO
KGYI 130915Z AUTO 17012KT 10SM BKN110 15/14 A2973 RMK AO2 T01470138 TSNO
KGYI 130855Z AUTO 17014G24KT 10SM SCT080 OVC110 15/14 A2972 RMK AO2 T01500140 TSNO